sensor_id;sensor_type;location;lat;lon;timestamp;pressure;altitude;pressure_sealevel;temperature;humidity
71966;BME280;59836;52.132;5.442;2023-04-01T00:01:02;99083.56;;;9.89;100.00
71966;BME280;59836;52.132;5.442;2023-04-01T00:03:29;99085.16;;;9.90;100.00
71966;BME280;59836;52.132;5.442;2023-04-01T00:05:58;99083.25;;;9.90;100.00
71966;BME280;59836;52.132;5.442;2023-04-01T00:08:25;99094.09;;;9.90;100.00
71966;BME280;59836;52.132;5.442;2023-04-01T00:10:52;99079.75;;;9.90;99.95
71966;BME280;59836;52.132;5.442;2023-04-01T00:13:19;99081.47;;;9.86;100.00
71966;BME280;59836;52.132;5.442;2023-04-01T00:15:47;99092.31;;;9.86;100.00
71966;BME280;59836;52.132;5.442;2023-04-01T00:18:14;99092.59;;;9.84;100.00
71966;BME280;59836;52.132;5.442;2023-04-01T00:20:46;99088.00;;;9.85;100.00
71966;BME280;59836;52.132;5.442;2023-04-01T00:23:14;99092.31;;;9.86;100.00
71966;BME280;59836;52.132;5.442;2023-04-01T00:25:40;99090.72;;;9.85;100.00
71966;BME280;59836;52.132;5.442;2023-04-01T00:28:07;99093.91;;;9.87;100.00
71966;BME280;59836;52.132;5.442;2023-04-01T00:30:35;99099.31;;;9.87;100.00
71966;BME280;59836;52.132;5.442;2023-04-01T00:33:02;99097.13;;;9.89;100.00
71966;BME280;59836;52.132;5.442;2023-04-01T00:35:30;99091.69;;;9.89;100.00
71966;BME280;59836;52.132;5.442;2023-04-01T00:37:56;99093.28;;;9.90;100.00
71966;BME280;59836;52.132;5.442;2023-04-01T00:40:30;99100.31;;;9.91;100.00
71966;BME280;59836;52.132;5.442;2023-04-01T00:42:57;99089.47;;;9.91;100.00
71966;BME280;59836;52.132;5.442;2023-04-01T00:47:54;99099.50;;;9.90;100.00
71966;BME280;59836;52.132;5.442;2023-04-01T00:50:22;99103.03;;;9.91;100.00
71966;BME280;59836;52.132;5.442;2023-04-01T00:52:51;99100.13;;;9.87;100.00
71966;BME280;59836;52.132;5.442;2023-04-01T00:55:19;99096.31;;;9.88;100.00
71966;BME280;59836;52.132;5.442;2023-04-01T00:57:48;99105.53;;;9.87;100.00
71966;BME280;59836;52.132;5.442;2023-04-01T01:00:17;99105.25;;;9.89;100.00
71966;BME280;59836;52.132;5.442;2023-04-01T01:02:45;99106.84;;;9.90;100.00
71966;BME280;59836;52.132;5.442;2023-04-01T01:05:13;99110.16;;;9.87;100.00
71966;BME280;59836;52.132;5.442;2023-04-01T01:08:10;99108.56;;;9.86;100.00
71966;BME280;59836;52.132;5.442;2023-04-01T01:10:42;99115.09;;;9.85;100.00
71966;BME280;59836;52.132;5.442;2023-04-01T01:13:27;99113.97;;;9.86;100.00
71966;BME280;59836;52.132;5.442;2023-04-01T01:16:21;99123.81;;;9.82;99.95
71966;BME280;59836;52.132;5.442;2023-04-01T01:24:53;99126.16;;;9.74;100.00
71966;BME280;59836;52.132;5.442;2023-04-01T01:27:22;99122.94;;;9.72;100.00
71966;BME280;59836;52.132;5.442;2023-04-01T01:33:01;99123.44;;;9.74;100.00
71966;BME280;59836;52.132;5.442;2023-04-01T01:35:38;99125.81;;;9.76;100.00
71966;BME280;59836;52.132;5.442;2023-04-01T01:38:10;99125.03;;;9.75;99.68
71966;BME280;59836;52.132;5.442;2023-04-01T01:40:41;99128.03;;;9.74;99.94
71966;BME280;59836;52.132;5.442;2023-04-01T01:43:11;99125.66;;;9.72;100.00
71966;BME280;59836;52.132;5.442;2023-04-01T01:45:46;99123.25;;;9.71;99.92
71966;BME280;59836;52.132;5.442;2023-04-01T01:48:12;99130.25;;;9.72;100.00
71966;BME280;59836;52.132;5.442;2023-04-01T01:50:39;99128.66;;;9.71;99.99
71966;BME280;59836;52.132;5.442;2023-04-01T01:53:10;99131.19;;;9.67;100.00
71966;BME280;59836;52.132;5.442;2023-04-01T01:55:41;99129.59;;;9.66;100.00
71966;BME280;59836;52.132;5.442;2023-04-01T01:58:17;99130.97;;;9.64;99.87
71966;BME280;59836;52.132;5.442;2023-04-01T02:00:53;99129.69;;;9.61;99.94
71966;BME280;59836;52.132;5.442;2023-04-01T02:03:23;99133.50;;;9.60;99.69
71966;BME280;59836;52.132;5.442;2023-04-01T02:05:52;99137.94;;;9.56;99.65
71966;BME280;59836;52.132;5.442;2023-04-01T02:08:24;99139.53;;;9.57;99.79
71966;BME280;59836;52.132;5.442;2023-04-01T02:10:59;99141.44;;;9.56;99.70
71966;BME280;59836;52.132;5.442;2023-04-01T02:13:35;99137.63;;;9.57;99.81
71966;BME280;59836;52.132;5.442;2023-04-01T02:16:08;99135.72;;;9.58;99.52
71966;BME280;59836;52.132;5.442;2023-04-01T02:18:38;99140.63;;;9.56;99.67
71966;BME280;59836;52.132;5.442;2023-04-01T02:21:05;99145.56;;;9.54;99.87
71966;BME280;59836;52.132;5.442;2023-04-01T02:23:35;99146.66;;;9.53;99.66
71966;BME280;59836;52.132;5.442;2023-04-01T02:26:06;99144.28;;;9.51;99.82
71966;BME280;59836;52.132;5.442;2023-04-01T02:28:36;99145.06;;;9.52;99.87
71966;BME280;59836;52.132;5.442;2023-04-01T02:31:05;99141.34;;;9.48;99.75
71966;BME280;59836;52.132;5.442;2023-04-01T02:33:31;99145.16;;;9.47;99.93
71966;BME280;59836;52.132;5.442;2023-04-01T02:35:59;99152.50;;;9.46;99.59
71966;BME280;59836;52.132;5.442;2023-04-01T02:38:25;99145.78;;;9.43;100.00
71966;BME280;59836;52.132;5.442;2023-04-01T02:40:59;99154.72;;;9.44;99.88
71966;BME280;59836;52.132;5.442;2023-04-01T02:43:26;99145.00;;;9.43;100.00
71966;BME280;59836;52.132;5.442;2023-04-01T02:45:53;99155.00;;;9.42;100.00
71966;BME280;59836;52.132;5.442;2023-04-01T02:48:19;99153.59;;;9.45;100.00
71966;BME280;59836;52.132;5.442;2023-04-01T02:50:46;99155.81;;;9.43;100.00
71966;BME280;59836;52.132;5.442;2023-04-01T02:53:12;99156.00;;;9.47;100.00
71966;BME280;59836;52.132;5.442;2023-04-01T02:55:39;99159.81;;;9.45;99.79
71966;BME280;59836;52.132;5.442;2023-04-01T02:58:05;99160.63;;;9.46;100.00
71966;BME280;59836;52.132;5.442;2023-04-01T03:00:32;99158.19;;;9.44;99.87
71966;BME280;59836;52.132;5.442;2023-04-01T03:02:58;99164.44;;;9.45;99.99
71966;BME280;59836;52.132;5.442;2023-04-01T03:05:25;99161.22;;;9.43;99.99
71966;BME280;59836;52.132;5.442;2023-04-01T03:07:51;99162.81;;;9.44;100.00
71966;BME280;59836;52.132;5.442;2023-04-01T03:10:18;99167.75;;;9.42;100.00
71966;BME280;59836;52.132;5.442;2023-04-01T03:12:44;99169.63;;;9.41;100.00
71966;BME280;59836;52.132;5.442;2023-04-01T03:15:12;99170.44;;;9.42;100.00
71966;BME280;59836;52.132;5.442;2023-04-01T03:17:41;99180.44;;;9.41;99.94
71966;BME280;59836;52.132;5.442;2023-04-01T03:20:09;99181.28;;;9.42;100.00
71966;BME280;59836;52.132;5.442;2023-04-01T03:22:37;99173.94;;;9.42;100.00
71966;BME280;59836;52.132;5.442;2023-04-01T03:25:07;99174.75;;;9.43;100.00
71966;BME280;59836;52.132;5.442;2023-04-01T03:27:34;99181.78;;;9.44;100.00
71966;BME280;59836;52.132;5.442;2023-04-01T03:30:05;99185.25;;;9.44;99.94
71966;BME280;59836;52.132;5.442;2023-04-01T03:32:32;99193.09;;;9.46;100.00
71966;BME280;59836;52.132;5.442;2023-04-01T03:34:59;99197.69;;;9.45;100.00
71966;BME280;59836;52.132;5.442;2023-04-01T03:37:25;99197.19;;;9.43;100.00
71966;BME280;59836;52.132;5.442;2023-04-01T03:39:52;99198.78;;;9.44;100.00
71966;BME280;59836;52.132;5.442;2023-04-01T03:42:18;99204.53;;;9.43;99.84
71966;BME280;59836;52.132;5.442;2023-04-01T03:44:45;99196.09;;;9.44;100.00
71966;BME280;59836;52.132;5.442;2023-04-01T03:47:11;99197.69;;;9.45;100.00
71966;BME280;59836;52.132;5.442;2023-04-01T03:49:38;99202.31;;;9.45;100.00
71966;BME280;59836;52.132;5.442;2023-04-01T03:52:08;99212.03;;;9.46;99.94
71966;BME280;59836;52.132;5.442;2023-04-01T03:54:35;99207.41;;;9.47;100.00
71966;BME280;59836;52.132;5.442;2023-04-01T03:57:02;99213.63;;;9.47;100.00
71966;BME280;59836;52.132;5.442;2023-04-01T03:59:28;99214.94;;;9.50;100.00
71966;BME280;59836;52.132;5.442;2023-04-01T04:01:55;99224.66;;;9.51;100.00
71966;BME280;59836;52.132;5.442;2023-04-01T04:04:21;99225.75;;;9.50;100.00
71966;BME280;59836;52.132;5.442;2023-04-01T04:06:48;99223.03;;;9.50;100.00
71966;BME280;59836;52.132;5.442;2023-04-01T04:09:14;99230.06;;;9.51;100.00
71966;BME280;59836;52.132;5.442;2023-04-01T04:11:41;99227.34;;;9.51;100.00
71966;BME280;59836;52.132;5.442;2023-04-01T04:14:07;99230.88;;;9.51;100.00
71966;BME280;59836;52.132;5.442;2023-04-01T04:16:37;99231.66;;;9.52;100.00
71966;BME280;59836;52.132;5.442;2023-04-01T04:19:03;99232.75;;;9.51;100.00
71966;BME280;59836;52.132;5.442;2023-04-01T04:21:30;99241.38;;;9.53;100.00
71966;BME280;59836;52.132;5.442;2023-04-01T04:23:58;99240.28;;;9.54;100.00
71966;BME280;59836;52.132;5.442;2023-04-01T04:26:25;99245.69;;;9.54;100.00
71966;BME280;59836;52.132;5.442;2023-04-01T04:28:53;99246.00;;;9.52;100.00
71966;BME280;59836;52.132;5.442;2023-04-01T04:31:24;99244.09;;;9.53;100.00
71966;BME280;59836;52.132;5.442;2023-04-01T04:33:52;99251.09;;;9.54;100.00
71966;BME280;59836;52.132;5.442;2023-04-01T04:36:19;99259.22;;;9.54;100.00
71966;BME280;59836;52.132;5.442;2023-04-01T04:38:47;99258.63;;;9.57;100.00
71966;BME280;59836;52.132;5.442;2023-04-01T04:41:15;99266.25;;;9.55;100.00
71966;BME280;59836;52.132;5.442;2023-04-01T04:43:49;99271.06;;;9.58;100.00
71966;BME280;59836;52.132;5.442;2023-04-01T04:46:16;99271.06;;;9.58;100.00
71966;BME280;59836;52.132;5.442;2023-04-01T04:48:43;99272.94;;;9.57;100.00
71966;BME280;59836;52.132;5.442;2023-04-01T04:51:17;99281.56;;;9.59;100.00
71966;BME280;59836;52.132;5.442;2023-04-01T04:53:44;99278.06;;;9.59;100.00
71966;BME280;59836;52.132;5.442;2023-04-01T04:56:11;99286.19;;;9.59;100.00
71966;BME280;59836;52.132;5.442;2023-04-01T04:58:38;99287.78;;;9.60;100.00
71966;BME280;59836;52.132;5.442;2023-04-01T05:01:13;99295.91;;;9.60;100.00
71966;BME280;59836;52.132;5.442;2023-04-01T05:03:40;99297.50;;;9.61;100.00
71966;BME280;59836;52.132;5.442;2023-04-01T05:06:08;99305.31;;;9.63;100.00
71966;BME280;59836;52.132;5.442;2023-04-01T05:08:36;99306.13;;;9.63;100.00
71966;BME280;59836;52.132;5.442;2023-04-01T05:11:03;99314.25;;;9.63;100.00
71966;BME280;59836;52.132;5.442;2023-04-01T05:13:30;99316.97;;;9.63;100.00
71966;BME280;59836;52.132;5.442;2023-04-01T05:15:56;99315.03;;;9.64;100.00
71966;BME280;59836;52.132;5.442;2023-04-01T05:18:23;99323.66;;;9.66;100.00
71966;BME280;59836;52.132;5.442;2023-04-01T05:20:51;99324.47;;;9.66;100.00
71966;BME280;59836;52.132;5.442;2023-04-01T05:23:19;99328.78;;;9.67;100.00
71966;BME280;59836;52.132;5.442;2023-04-01T05:25:50;99330.41;;;9.68;100.00
71966;BME280;59836;52.132;5.442;2023-04-01T05:28:19;99335.00;;;9.68;100.00
71966;BME280;59836;52.132;5.442;2023-04-01T05:30:46;99344.44;;;9.70;100.00
71966;BME280;59836;52.132;5.442;2023-04-01T05:33:12;99343.63;;;9.70;100.00
71966;BME280;59836;52.132;5.442;2023-04-01T05:35:40;99351.44;;;9.71;100.00
71966;BME280;59836;52.132;5.442;2023-04-01T05:38:07;99356.06;;;9.71;100.00
71966;BME280;59836;52.132;5.442;2023-04-01T05:40:33;99360.69;;;9.70;100.00
71966;BME280;59836;52.132;5.442;2023-04-01T05:43:00;99358.25;;;9.69;100.00
71966;BME280;59836;52.132;5.442;2023-04-01T05:45:27;99371.50;;;9.70;100.00
71966;BME280;59836;52.132;5.442;2023-04-01T05:47:53;99372.59;;;9.69;100.00
71966;BME280;59836;52.132;5.442;2023-04-01T05:50:20;99370.69;;;9.70;100.00
71966;BME280;59836;52.132;5.442;2023-04-01T05:52:46;99373.91;;;9.72;100.00
71966;BME280;59836;52.132;5.442;2023-04-01T05:55:13;99380.13;;;9.72;100.00
71966;BME280;59836;52.132;5.442;2023-04-01T05:57:39;99374.72;;;9.72;100.00
71966;BME280;59836;52.132;5.442;2023-04-01T06:00:06;99385.53;;;9.72;100.00
71966;BME280;59836;52.132;5.442;2023-04-01T06:02:33;99383.94;;;9.71;100.00
71966;BME280;59836;52.132;5.442;2023-04-01T06:05:19;99392.25;;;9.75;100.00
71966;BME280;59836;52.132;5.442;2023-04-01T06:07:46;99397.66;;;9.75;100.00
71966;BME280;59836;52.132;5.442;2023-04-01T06:10:15;99396.88;;;9.74;100.00
71966;BME280;59836;52.132;5.442;2023-04-01T06:15:57;99411.19;;;9.75;100.00
71966;BME280;59836;52.132;5.442;2023-04-01T06:26:49;99420.16;;;9.75;100.00
71966;BME280;59836;52.132;5.442;2023-04-01T06:32:22;99426.34;;;9.76;100.00
71966;BME280;59836;52.132;5.442;2023-04-01T06:37:57;99432.59;;;9.77;100.00
71966;BME280;59836;52.132;5.442;2023-04-01T06:43:17;99448.72;;;9.82;100.00
71966;BME280;59836;52.132;5.442;2023-04-01T06:48:48;99454.66;;;9.84;100.00
71966;BME280;59836;52.132;5.442;2023-04-01T06:51:34;99457.34;;;9.84;100.00
71966;BME280;59836;52.132;5.442;2023-04-01T06:54:12;99466.28;;;9.84;100.00
71966;BME280;59836;52.132;5.442;2023-04-01T06:56:42;99462.78;;;9.84;100.00
71966;BME280;59836;52.132;5.442;2023-04-01T06:59:15;99473.91;;;9.82;100.00
71966;BME280;59836;52.132;5.442;2023-04-01T07:01:50;99473.59;;;9.84;100.00
71966;BME280;59836;52.132;5.442;2023-04-01T07:04:22;99487.66;;;9.86;100.00
71966;BME280;59836;52.132;5.442;2023-04-01T07:07:00;99483.03;;;9.86;100.00
71966;BME280;59836;52.132;5.442;2023-04-01T07:09:54;99489.25;;;9.87;100.00
71966;BME280;59836;52.132;5.442;2023-04-01T07:15:30;99503.31;;;9.89;100.00
71966;BME280;59836;52.132;5.442;2023-04-01T07:18:07;99509.50;;;9.89;100.00
71966;BME280;59836;52.132;5.442;2023-04-01T07:20:37;99509.22;;;9.91;100.00
71966;BME280;59836;52.132;5.442;2023-04-01T07:23:10;99508.13;;;9.92;100.00
71966;BME280;59836;52.132;5.442;2023-04-01T07:25:44;99517.03;;;9.93;100.00
71966;BME280;59836;52.132;5.442;2023-04-01T07:28:14;99525.38;;;9.96;100.00
71966;BME280;59836;52.132;5.442;2023-04-01T07:33:47;99532.09;;;9.99;100.00
71966;BME280;59836;52.132;5.442;2023-04-01T07:36:32;99541.84;;;10.00;100.00
71966;BME280;59836;52.132;5.442;2023-04-01T07:39:08;99540.22;;;9.99;100.00
71966;BME280;59836;52.132;5.442;2023-04-01T07:41:51;99542.66;;;10.00;100.00
71966;BME280;59836;52.132;5.442;2023-04-01T07:50:26;99552.06;;;10.03;100.00
71966;BME280;59836;52.132;5.442;2023-04-01T07:55:35;99567.22;;;10.04;100.00
71966;BME280;59836;52.132;5.442;2023-04-01T08:01:12;99583.19;;;10.06;100.00
71966;BME280;59836;52.132;5.442;2023-04-01T08:04:14;99580.97;;;10.08;100.00
71966;BME280;59836;52.132;5.442;2023-04-01T08:10:13;99593.41;;;10.09;100.00
71966;BME280;59836;52.132;5.442;2023-04-01T08:13:05;99589.59;;;10.10;100.00
71966;BME280;59836;52.132;5.442;2023-04-01T08:16:03;99599.06;;;10.12;100.00
71966;BME280;59836;52.132;5.442;2023-04-01T08:18:45;99597.44;;;10.11;100.00
71966;BME280;59836;52.132;5.442;2023-04-01T08:21:28;99611.50;;;10.13;100.00
71966;BME280;59836;52.132;5.442;2023-04-01T08:24:00;99609.56;;;10.14;100.00
71966;BME280;59836;52.132;5.442;2023-04-01T08:26:38;99616.31;;;10.16;100.00
71966;BME280;59836;52.132;5.442;2023-04-01T08:29:13;99615.50;;;10.16;100.00
71966;BME280;59836;52.132;5.442;2023-04-01T08:32:17;99618.53;;;10.14;100.00
71966;BME280;59836;52.132;5.442;2023-04-01T08:34:47;99632.34;;;10.13;100.00
71966;BME280;59836;52.132;5.442;2023-04-01T08:37:21;99640.97;;;10.15;100.00
71966;BME280;59836;52.132;5.442;2023-04-01T08:39:54;99639.88;;;10.16;100.00
71966;BME280;59836;52.132;5.442;2023-04-01T08:43:12;99642.59;;;10.16;100.00
71966;BME280;59836;52.132;5.442;2023-04-01T08:45:21;99645.81;;;10.18;100.00
71966;BME280;59836;52.132;5.442;2023-04-01T08:48:47;99647.41;;;10.19;100.00
71966;BME280;59836;52.132;5.442;2023-04-01T08:51:33;99654.44;;;10.20;100.00
71966;BME280;59836;52.132;5.442;2023-04-01T08:54:33;99656.06;;;10.21;100.00
71966;BME280;59836;52.132;5.442;2023-04-01T09:03:15;99671.94;;;10.28;100.00
71966;BME280;59836;52.132;5.442;2023-04-01T09:06:23;99676.78;;;10.31;100.00
71966;BME280;59836;52.132;5.442;2023-04-01T09:14:48;99691.03;;;10.37;100.00
71966;BME280;59836;52.132;5.442;2023-04-01T09:23:02;99699.69;;;10.39;100.00
71966;BME280;59836;52.132;5.442;2023-04-01T09:31:28;99705.56;;;10.46;100.00
71966;BME280;59836;52.132;5.442;2023-04-01T09:34:21;99710.38;;;10.49;100.00
71966;BME280;59836;52.132;5.442;2023-04-01T09:43:26;99726.97;;;10.61;100.00
71966;BME280;59836;52.132;5.442;2023-04-01T09:54:07;99727.31;;;10.88;100.00
71966;BME280;59836;52.132;5.442;2023-04-01T09:56:58;99729.16;;;10.92;100.00
71966;BME280;59836;52.132;5.442;2023-04-01T10:02:30;99735.50;;;11.02;100.00
71966;BME280;59836;52.132;5.442;2023-04-01T10:11:04;99739.09;;;11.39;100.00
71966;BME280;59836;52.132;5.442;2023-04-01T10:14:34;99746.66;;;11.56;100.00
71966;BME280;59836;52.132;5.442;2023-04-01T10:17:16;99735.75;;;11.70;99.85
71966;BME280;59836;52.132;5.442;2023-04-01T10:25:53;99750.34;;;11.74;99.00
71966;BME280;59836;52.132;5.442;2023-04-01T10:31:35;99762.94;;;11.70;98.60
71966;BME280;59836;52.132;5.442;2023-04-01T10:34:31;99755.06;;;11.69;98.71
71966;BME280;59836;52.132;5.442;2023-04-01T10:37:32;99761.94;;;11.66;98.15
71966;BME280;59836;52.132;5.442;2023-04-01T10:51:19;99774.81;;;11.46;98.08
71966;BME280;59836;52.132;5.442;2023-04-01T10:54:21;99784.06;;;11.45;97.93
71966;BME280;59836;52.132;5.442;2023-04-01T10:59:54;99787.47;;;11.65;98.06
71966;BME280;59836;52.132;5.442;2023-04-01T11:19:39;99801.34;;;11.49;97.65
71966;BME280;59836;52.132;5.442;2023-04-01T11:25:02;99812.41;;;11.39;97.54
71966;BME280;59836;52.132;5.442;2023-04-01T11:30:53;99828.28;;;11.32;97.96
71966;BME280;59836;52.132;5.442;2023-04-01T11:39:13;99833.72;;;11.32;96.83
71966;BME280;59836;52.132;5.442;2023-04-01T11:42:12;99838.53;;;11.35;96.51
71966;BME280;59836;52.132;5.442;2023-04-01T11:48:03;99843.69;;;11.36;96.64
71966;BME280;59836;52.132;5.442;2023-04-01T11:56:40;99858.16;;;11.32;96.88
71966;BME280;59836;52.132;5.442;2023-04-01T11:59:43;99864.69;;;11.31;97.16
71966;BME280;59836;52.132;5.442;2023-04-01T12:02:29;99866.28;;;11.32;97.18
71966;BME280;59836;52.132;5.442;2023-04-01T12:05:41;99870.94;;;11.31;97.55
71966;BME280;59836;52.132;5.442;2023-04-01T12:08:24;99874.94;;;11.34;97.68
71966;BME280;59836;52.132;5.442;2023-04-01T12:11:00;99876.56;;;11.35;97.63
71966;BME280;59836;52.132;5.442;2023-04-01T12:13:53;99889.03;;;11.36;97.75
71966;BME280;59836;52.132;5.442;2023-04-01T12:22:09;99886.81;;;11.38;97.88
71966;BME280;59836;52.132;5.442;2023-04-01T12:30:09;99900.47;;;11.33;98.33
71966;BME280;59836;52.132;5.442;2023-04-01T12:32:49;99910.22;;;11.34;98.02
71966;BME280;59836;52.132;5.442;2023-04-01T12:38:30;99912.34;;;11.37;97.89
71966;BME280;59836;52.132;5.442;2023-04-01T12:41:14;99913.97;;;11.38;97.86
71966;BME280;59836;52.132;5.442;2023-04-01T12:46:41;99918.19;;;11.44;97.95
71966;BME280;59836;52.132;5.442;2023-04-01T12:49:31;99922.16;;;11.52;98.19
71966;BME280;59836;52.132;5.442;2023-04-01T12:52:03;99920.66;;;11.60;98.27
71966;BME280;59836;52.132;5.442;2023-04-01T12:54:56;99928.09;;;11.68;98.61
71966;BME280;59836;52.132;5.442;2023-04-01T12:58:05;99928.53;;;11.75;98.59
71966;BME280;59836;52.132;5.442;2023-04-01T13:06:19;99936.34;;;11.77;97.93
71966;BME280;59836;52.132;5.442;2023-04-01T13:14:35;99949.25;;;11.71;98.36
71966;BME280;59836;52.132;5.442;2023-04-01T13:17:22;99957.97;;;11.68;97.96
71966;BME280;59836;52.132;5.442;2023-04-01T13:19:59;99965.94;;;11.64;97.99
71966;BME280;59836;52.132;5.442;2023-04-01T13:27:53;99972.13;;;11.51;98.21
71966;BME280;59836;52.132;5.442;2023-04-01T13:30:39;99966.47;;;11.47;98.23
71966;BME280;59836;52.132;5.442;2023-04-01T13:36:21;99988.38;;;11.37;98.42
71966;BME280;59836;52.132;5.442;2023-04-01T13:39:15;99993.78;;;11.37;98.36
71966;BME280;59836;52.132;5.442;2023-04-01T13:42:11;99981.91;;;11.33;98.63
71966;BME280;59836;52.132;5.442;2023-04-01T13:44:49;99988.16;;;11.33;98.98
71966;BME280;59836;52.132;5.442;2023-04-01T13:50:01;99996.59;;;11.32;99.23
71966;BME280;59836;52.132;5.442;2023-04-01T13:55:54;100004.28;;;11.25;99.32
71966;BME280;59836;52.132;5.442;2023-04-01T13:58:31;99994.03;;;11.21;99.68
71966;BME280;59836;52.132;5.442;2023-04-01T14:01:35;100003.59;;;11.19;99.65
71966;BME280;59836;52.132;5.442;2023-04-01T14:04:28;100014.19;;;11.15;99.54
71966;BME280;59836;52.132;5.442;2023-04-01T14:07:31;100019.44;;;11.12;99.43
71966;BME280;59836;52.132;5.442;2023-04-01T14:10:18;100027.63;;;11.06;99.40
71966;BME280;59836;52.132;5.442;2023-04-01T14:12:59;100035.25;;;11.04;99.28
71966;BME280;59836;52.132;5.442;2023-04-01T14:15:54;100044.28;;;11.00;99.28
71966;BME280;59836;52.132;5.442;2023-04-01T14:18:39;100050.31;;;10.97;99.40
71966;BME280;59836;52.132;5.442;2023-04-01T14:21:27;100051.91;;;10.98;99.45
71966;BME280;59836;52.132;5.442;2023-04-01T14:24:06;100047.59;;;10.97;99.04
71966;BME280;59836;52.132;5.442;2023-04-01T14:27:17;100056.31;;;10.93;99.25
71966;BME280;59836;52.132;5.442;2023-04-01T14:30:01;100063.94;;;10.91;99.25
71966;BME280;59836;52.132;5.442;2023-04-01T14:32:48;100071.03;;;10.87;99.27
71966;BME280;59836;52.132;5.442;2023-04-01T14:35:49;100083.00;;;10.86;99.15
71966;BME280;59836;52.132;5.442;2023-04-01T14:40:56;100087.38;;;10.82;98.97
71966;BME280;59836;52.132;5.442;2023-04-01T14:43:41;100095.00;;;10.80;99.21
71966;BME280;59836;52.132;5.442;2023-04-01T14:49:04;100106.69;;;10.75;98.76
71966;BME280;59836;52.132;5.442;2023-04-01T14:51:40;100108.88;;;10.73;98.93
71966;BME280;59836;52.132;5.442;2023-04-01T14:54:42;100120.03;;;10.72;98.49
71966;BME280;59836;52.132;5.442;2023-04-01T14:57:14;100116.22;;;10.73;98.67
71966;BME280;59836;52.132;5.442;2023-04-01T14:59:49;100116.50;;;10.71;98.74
71966;BME280;59836;52.132;5.442;2023-04-01T15:02:33;100122.22;;;10.70;98.95
71966;BME280;59836;52.132;5.442;2023-04-01T15:07:59;100134.44;;;10.67;99.09
71966;BME280;59836;52.132;5.442;2023-04-01T15:10:48;100135.78;;;10.70;98.70
71966;BME280;59836;52.132;5.442;2023-04-01T15:16:20;100152.59;;;10.72;99.17
71966;BME280;59836;52.132;5.442;2023-04-01T15:21:42;100162.03;;;10.74;98.79
71966;BME280;59836;52.132;5.442;2023-04-01T15:27:01;100167.72;;;10.78;99.07
71966;BME280;59836;52.132;5.442;2023-04-01T15:29:57;100178.56;;;10.78;98.47
71966;BME280;59836;52.132;5.442;2023-04-01T15:32:43;100171.53;;;10.77;98.31
71966;BME280;59836;52.132;5.442;2023-04-01T15:38:05;100191.59;;;10.76;98.60
71966;BME280;59836;52.132;5.442;2023-04-01T15:40:49;100200.84;;;10.75;98.87
71966;BME280;59836;52.132;5.442;2023-04-01T15:46:18;100208.44;;;10.73;98.91
71966;BME280;59836;52.132;5.442;2023-04-01T15:49:03;100211.72;;;10.70;98.36
71966;BME280;59836;52.132;5.442;2023-04-01T15:51:47;100216.63;;;10.68;97.99
71966;BME280;59836;52.132;5.442;2023-04-01T15:54:25;100218.81;;;10.66;98.04
71966;BME280;59836;52.132;5.442;2023-04-01T15:57:11;100225.88;;;10.67;98.27
71966;BME280;59836;52.132;5.442;2023-04-01T16:00:05;100242.19;;;10.61;98.35
71966;BME280;59836;52.132;5.442;2023-04-01T16:09:01;100256.66;;;10.52;97.95
71966;BME280;59836;52.132;5.442;2023-04-01T16:11:41;100258.00;;;10.49;97.63
71966;BME280;59836;52.132;5.442;2023-04-01T16:17:11;100273.22;;;10.45;97.94
71966;BME280;59836;52.132;5.442;2023-04-01T16:22:48;100282.44;;;10.39;98.17
71966;BME280;59836;52.132;5.442;2023-04-01T16:25:33;100291.13;;;10.36;97.87
71966;BME280;59836;52.132;5.442;2023-04-01T16:28:13;100294.16;;;10.34;97.44
71966;BME280;59836;52.132;5.442;2023-04-01T16:30:48;100303.09;;;10.29;97.97
71966;BME280;59836;52.132;5.442;2023-04-01T16:33:28;100305.28;;;10.27;97.36
71966;BME280;59836;52.132;5.442;2023-04-01T16:36:28;100315.59;;;10.25;97.55
71966;BME280;59836;52.132;5.442;2023-04-01T16:39:16;100317.53;;;10.19;97.27
71966;BME280;59836;52.132;5.442;2023-04-01T16:41:59;100316.75;;;10.14;97.26
71966;BME280;59836;52.132;5.442;2023-04-01T16:44:51;100332.22;;;10.13;97.97
71966;BME280;59836;52.132;5.442;2023-04-01T16:47:26;100340.06;;;10.10;97.84
71966;BME280;59836;52.132;5.442;2023-04-01T16:50:00;100346.34;;;10.05;97.05
71966;BME280;59836;52.132;5.442;2023-04-01T16:52:42;100349.91;;;10.00;97.52
71966;BME280;59836;52.132;5.442;2023-04-01T16:55:18;100358.56;;;10.02;97.57
71966;BME280;59836;52.132;5.442;2023-04-01T16:57:53;100356.63;;;10.03;97.60
71966;BME280;59836;52.132;5.442;2023-04-01T17:00:29;100364.50;;;10.04;97.28
71966;BME280;59836;52.132;5.442;2023-04-01T17:03:37;100378.84;;;10.05;97.77
71966;BME280;59836;52.132;5.442;2023-04-01T17:09:07;100384.03;;;9.96;97.09
71966;BME280;59836;52.132;5.442;2023-04-01T17:14:30;100407.09;;;9.88;96.88
71966;BME280;59836;52.132;5.442;2023-04-01T17:17:24;100411.72;;;9.83;97.10
71966;BME280;59836;52.132;5.442;2023-04-01T17:20:12;100413.88;;;9.81;96.76
71966;BME280;59836;52.132;5.442;2023-04-01T17:22:55;100424.72;;;9.81;96.54
71966;BME280;59836;52.132;5.442;2023-04-01T17:25:31;100423.34;;;9.78;96.58
71966;BME280;59836;52.132;5.442;2023-04-01T17:28:36;100436.66;;;9.74;96.16
71966;BME280;59836;52.132;5.442;2023-04-01T17:33:55;100456.41;;;9.70;96.17
71966;BME280;59836;52.132;5.442;2023-04-01T17:39:26;100462.13;;;9.68;96.36
71966;BME280;59836;52.132;5.442;2023-04-01T17:45:03;100489.72;;;9.65;96.89
71966;BME280;59836;52.132;5.442;2023-04-01T17:47:49;100493.53;;;9.64;96.78
71966;BME280;59836;52.132;5.442;2023-04-01T17:50:20;100500.28;;;9.62;96.57
71966;BME280;59836;52.132;5.442;2023-04-01T17:53:18;100497.31;;;9.58;96.22
71966;BME280;59836;52.132;5.442;2023-04-01T18:06:51;100531.97;;;9.51;95.67
71966;BME280;59836;52.132;5.442;2023-04-01T18:15:20;100556.88;;;9.42;95.46
71966;BME280;59836;52.132;5.442;2023-04-01T18:21:10;100566.59;;;9.38;95.41